Heubes-Wetterstation in 44289 Dortmund
Heubes-Wetterstation

Messwerte der letzten 60 Minuten im Minuten-Intervall (Wetterstation 44289 Dortmund)

Datum & Uhrzeit Temp. Feucht. Wind-Ø Böen Sekt.  Regen Rate Luftdruck
25.02.2024 - 06:094.7 °C85%0 km/h 0 km/h N0.0 mm 0.0 mm 1001.6 hPa, gleichbleibend
25.02.2024 - 06:084.7 °C85%0 km/h 0 km/h N0.0 mm 0.0 mm 1001.6 hPa, gleichbleibend
25.02.2024 - 06:074.7 °C85%0 km/h 2 km/h N0.0 mm 0.0 mm 1001.6 hPa, langsam steigend
25.02.2024 - 06:064.7 °C85%2 km/h 8 km/h S-SW0.0 mm 0.0 mm 1001.5 hPa, gleichbleibend
25.02.2024 - 06:054.7 °C85%0 km/h 5 km/h N0.0 mm 0.0 mm 1001.5 hPa, gleichbleibend
25.02.2024 - 06:044.7 °C85%2 km/h 10 km/h S0.0 mm 0.0 mm 1001.5 hPa, gleichbleibend
25.02.2024 - 06:034.7 °C85%2 km/h 15 km/h SW0.0 mm 0.0 mm 1001.5 hPa, gleichbleibend
25.02.2024 - 06:024.7 °C85%3 km/h 10 km/h S-SW0.0 mm 0.0 mm 1001.5 hPa, gleichbleibend
25.02.2024 - 06:014.7 °C85%3 km/h 10 km/h S-SO0.0 mm 0.0 mm 1001.5 hPa, langsam fallend
25.02.2024 - 06:004.7 °C85%3 km/h 15 km/h S-SW0.0 mm 0.0 mm 1001.6 hPa, langsam steigend
25.02.2024 - 05:594.6 °C85%0 km/h 0 km/h N0.0 mm 0.0 mm 1001.5 hPa, gleichbleibend
25.02.2024 - 05:584.7 °C85%0 km/h 0 km/h N0.0 mm 0.0 mm 1001.5 hPa, langsam fallend
25.02.2024 - 05:574.7 °C85%0 km/h 3 km/h N0.0 mm 0.0 mm 1001.6 hPa, langsam steigend
25.02.2024 - 05:564.6 °C85%0 km/h 5 km/h N0.0 mm 0.0 mm 1001.5 hPa, langsam fallend
25.02.2024 - 05:554.6 °C85%5 km/h 13 km/h S0.0 mm 0.0 mm 1001.6 hPa, langsam steigend
25.02.2024 - 05:544.6 °C85%3 km/h 18 km/h S-SO0.0 mm 0.0 mm 1001.5 hPa, langsam fallend
25.02.2024 - 05:534.6 °C85%2 km/h 15 km/h S0.0 mm 0.0 mm 1001.6 hPa, langsam steigend
25.02.2024 - 05:524.6 °C85%0 km/h 2 km/h N0.0 mm 0.0 mm 1001.5 hPa, langsam fallend
25.02.2024 - 05:514.6 °C85%2 km/h 8 km/h S0.0 mm 0.0 mm 1001.6 hPa, langsam steigend
25.02.2024 - 05:504.6 °C85%0 km/h 0 km/h N0.0 mm 0.0 mm 1001.5 hPa, gleichbleibend
25.02.2024 - 05:494.6 °C85%2 km/h 5 km/h SW0.0 mm 0.0 mm 1001.5 hPa, langsam fallend
25.02.2024 - 05:484.6 °C85%3 km/h 8 km/h S0.0 mm 0.0 mm 1001.6 hPa, langsam steigend
25.02.2024 - 05:474.6 °C85%5 km/h 13 km/h S0.0 mm 0.0 mm 1001.5 hPa, gleichbleibend
25.02.2024 - 05:464.6 °C85%3 km/h 13 km/h S0.0 mm 0.0 mm 1001.5 hPa, langsam fallend
25.02.2024 - 05:454.6 °C85%2 km/h 5 km/h S-SW0.0 mm 0.0 mm 1001.6 hPa, gleichbleibend
25.02.2024 - 05:444.6 °C85%2 km/h 6 km/h S-SO0.0 mm 0.0 mm 1001.6 hPa, gleichbleibend
25.02.2024 - 05:434.6 °C85%3 km/h 11 km/h S-SW0.0 mm 0.0 mm 1001.6 hPa, gleichbleibend
25.02.2024 - 05:424.6 °C85%2 km/h 10 km/h S0.0 mm 0.0 mm 1001.6 hPa, gleichbleibend
25.02.2024 - 05:414.6 °C85%2 km/h 11 km/h S-SO0.0 mm 0.0 mm 1001.6 hPa, gleichbleibend
25.02.2024 - 05:404.6 °C85%6 km/h 16 km/h SW0.0 mm 0.0 mm 1001.6 hPa, gleichbleibend
25.02.2024 - 05:394.6 °C85%3 km/h 8 km/h S0.0 mm 0.0 mm 1001.6 hPa, gleichbleibend
25.02.2024 - 05:384.6 °C85%3 km/h 10 km/h S0.0 mm 0.0 mm 1001.6 hPa, langsam fallend
25.02.2024 - 05:374.6 °C85%2 km/h 11 km/h S0.0 mm 0.0 mm 1001.7 hPa, gleichbleibend
25.02.2024 - 05:364.6 °C85%2 km/h 13 km/h S0.0 mm 0.0 mm 1001.7 hPa, gleichbleibend
25.02.2024 - 05:354.6 °C85%0 km/h 2 km/h N0.0 mm 0.0 mm 1001.7 hPa, langsam steigend
25.02.2024 - 05:344.6 °C85%3 km/h 13 km/h S0.0 mm 0.0 mm 1001.6 hPa, gleichbleibend
25.02.2024 - 05:334.6 °C85%5 km/h 11 km/h S0.0 mm 0.0 mm 1001.6 hPa, gleichbleibend
25.02.2024 - 05:324.6 °C85%0 km/h 5 km/h N0.0 mm 0.0 mm 1001.6 hPa, gleichbleibend
25.02.2024 - 05:314.6 °C85%0 km/h 3 km/h N0.0 mm 0.0 mm 1001.6 hPa, gleichbleibend
25.02.2024 - 05:304.6 °C85%2 km/h 11 km/h S-SW0.0 mm 0.0 mm 1001.6 hPa, gleichbleibend
25.02.2024 - 05:294.6 °C85%2 km/h 6 km/h S0.0 mm 0.0 mm 1001.6 hPa, langsam fallend
25.02.2024 - 05:284.6 °C85%5 km/h 15 km/h S-SO0.0 mm 0.0 mm 1001.7 hPa, langsam steigend
25.02.2024 - 05:274.6 °C85%0 km/h 5 km/h N0.0 mm 0.0 mm 1001.6 hPa, gleichbleibend
25.02.2024 - 05:264.6 °C85%3 km/h 11 km/h S-SW0.0 mm 0.0 mm 1001.6 hPa, gleichbleibend
25.02.2024 - 05:254.6 °C85%2 km/h 8 km/h S0.0 mm 0.0 mm 1001.6 hPa, gleichbleibend
25.02.2024 - 05:244.6 °C85%2 km/h 11 km/h S0.0 mm 0.0 mm 1001.6 hPa, langsam steigend
25.02.2024 - 05:234.6 °C84%3 km/h 8 km/h S0.0 mm 0.0 mm 1001.5 hPa, langsam fallend
25.02.2024 - 05:224.6 °C84%5 km/h 19 km/h S-SW0.0 mm 0.0 mm 1001.6 hPa, gleichbleibend
25.02.2024 - 05:214.6 °C84%3 km/h 11 km/h S-SW0.0 mm 0.0 mm 1001.6 hPa, gleichbleibend
25.02.2024 - 05:204.6 °C85%5 km/h 13 km/h S0.0 mm 0.0 mm 1001.6 hPa, gleichbleibend
25.02.2024 - 05:194.6 °C85%3 km/h 13 km/h S-SW0.0 mm 0.0 mm 1001.6 hPa, gleichbleibend
25.02.2024 - 05:184.6 °C84%2 km/h 8 km/h S0.0 mm 0.0 mm 1001.6 hPa, gleichbleibend
25.02.2024 - 05:174.6 °C84%5 km/h 15 km/h S0.0 mm 0.0 mm 1001.6 hPa, langsam steigend
25.02.2024 - 05:164.6 °C84%6 km/h 18 km/h S-SW0.0 mm 0.0 mm 1001.5 hPa, gleichbleibend
25.02.2024 - 05:154.6 °C84%6 km/h 18 km/h S0.0 mm 0.0 mm 1001.5 hPa, gleichbleibend
25.02.2024 - 05:144.6 °C84%3 km/h 10 km/h S0.0 mm 0.0 mm 1001.5 hPa, gleichbleibend
25.02.2024 - 05:134.6 °C84%3 km/h 13 km/h S-SW0.0 mm 0.0 mm 1001.5 hPa, gleichbleibend
25.02.2024 - 05:124.6 °C84%3 km/h 10 km/h S0.0 mm 0.0 mm 1001.5 hPa, gleichbleibend
25.02.2024 - 05:114.7 °C84%2 km/h 8 km/h S0.0 mm 0.0 mm 1001.5 hPa, gleichbleibend
25.02.2024 - 05:104.7 °C84%5 km/h 13 km/h S0.0 mm 0.0 mm 1001.5 hPa, gleichbleibend